Time;durP1;ratioP1;P1;durP2;ratioP2;P2;SDS_P1;SDS_P2;PMS_P1;PMS_P2;Temp;Humidity;BMP_temperature;BMP_pressure;BME280_temperature;BME280_humidity;BME280_pressure;Samples;Min_cycle;Max_cycle;Signal;HPM_P1;HPM_P2
2023/03/12 00:00:50;;;;;;;2.25;1.00;;;5.00;65.90;;;;;;2492529;52;21307;-84
2023/03/12 00:03:16;;;;;;;2.92;1.20;;;5.00;65.80;;;;;;2493852;52;20933;-83
2023/03/12 00:05:43;;;;;;;3.50;1.52;;;5.00;65.90;;;;;;2492934;52;20863;-86
2023/03/12 00:08:10;;;;;;;4.57;1.70;;;5.00;65.80;;;;;;2493223;52;21746;-84
2023/03/12 00:10:38;;;;;;;5.05;2.17;;;4.90;65.70;;;;;;2492963;52;21068;-84
2023/03/12 00:13:04;;;;;;;5.93;1.90;;;4.90;65.80;;;;;;2492514;52;21452;-84
2023/03/12 00:15:30;;;;;;;4.65;1.60;;;4.90;65.80;;;;;;2493045;55;20969;-83
2023/03/12 00:17:56;;;;;;;3.80;1.50;;;4.90;65.70;;;;;;2492567;52;21057;-83
2023/03/12 00:20:23;;;;;;;4.10;1.40;;;4.90;65.70;;;;;;2493812;52;20966;-84
2023/03/12 00:22:49;;;;;;;5.25;1.67;;;4.90;65.70;;;;;;2493362;55;21057;-83
2023/03/12 00:25:16;;;;;;;6.28;2.10;;;4.90;65.60;;;;;;2493080;52;20911;-84
2023/03/12 00:27:42;;;;;;;5.00;2.08;;;4.90;65.60;;;;;;2493323;52;21573;-84
2023/03/12 00:30:09;;;;;;;4.90;2.08;;;4.90;65.70;;;;;;2494151;52;21025;-84
2023/03/12 00:32:36;;;;;;;7.05;2.30;;;4.80;65.60;;;;;;2494845;52;20918;-83
2023/03/12 00:35:02;;;;;;;6.12;2.67;;;4.80;65.60;;;;;;2495808;52;20954;-84
2023/03/12 00:37:29;;;;;;;4.90;2.10;;;4.80;65.60;;;;;;2494468;52;21069;-84
2023/03/12 00:39:55;;;;;;;4.55;2.00;;;4.80;65.70;;;;;;2494462;52;21344;-84
2023/03/12 00:42:21;;;;;;;4.90;1.70;;;4.80;65.60;;;;;;2494246;52;21214;-83
2023/03/12 00:44:48;;;;;;;5.57;2.37;;;4.80;65.60;;;;;;2264586;55;20958;-84
2023/03/12 00:47:14;;;;;;;5.97;2.25;;;4.80;65.70;;;;;;2493651;52;21912;-84
2023/03/12 00:49:40;;;;;;;5.35;1.83;;;4.70;65.60;;;;;;2493338;52;20970;-84
2023/03/12 00:52:07;;;;;;;4.07;1.83;;;4.70;65.60;;;;;;2264746;56;20954;-85
2023/03/12 00:54:33;;;;;;;4.60;2.03;;;4.60;65.70;;;;;;2493871;52;20930;-84
2023/03/12 00:56:59;;;;;;;3.80;1.60;;;4.70;65.60;;;;;;2493666;52;20969;-84
2023/03/12 00:59:26;;;;;;;5.25;2.05;;;4.70;66.00;;;;;;2493591;52;20942;-85
2023/03/12 01:01:52;;;;;;;5.37;1.70;;;4.70;66.00;;;;;;2264286;56;20926;-85
2023/03/12 01:04:18;;;;;;;5.20;1.95;;;4.70;66.10;;;;;;2493343;52;21304;-84
2023/03/12 01:06:45;;;;;;;3.90;1.52;;;4.70;66.30;;;;;;2493187;52;20934;-84
2023/03/12 01:09:11;;;;;;;4.95;1.67;;;4.70;66.40;;;;;;2492872;52;20941;-84
2023/03/12 01:11:37;;;;;;;3.42;1.50;;;4.70;66.30;;;;;;2492674;52;20962;-84
2023/03/12 01:14:05;;;;;;;2.67;1.20;;;4.80;66.60;;;;;;2492974;52;20950;-82
2023/03/12 01:16:31;;;;;;;3.95;1.70;;;4.80;66.60;;;;;;2493269;52;22128;-84
2023/03/12 01:18:58;;;;;;;3.28;1.62;;;4.80;66.60;;;;;;2492922;52;21017;-84
2023/03/12 01:21:24;;;;;;;6.03;1.95;;;4.80;66.60;;;;;;2493397;52;20922;-85
2023/03/12 01:23:50;;;;;;;5.03;1.80;;;4.80;66.60;;;;;;2493091;52;21101;-83
2023/03/12 01:26:17;;;;;;;3.62;1.48;;;4.90;66.80;;;;;;2492777;52;20895;-85
2023/03/12 01:28:44;;;;;;;4.32;1.87;;;4.90;66.70;;;;;;2493105;52;20914;-84
2023/03/12 01:31:12;;;;;;;5.57;1.83;;;4.90;66.90;;;;;;2489750;52;20908;-85
2023/03/12 01:33:39;;;;;;;4.35;1.70;;;4.80;66.90;;;;;;2493574;52;20934;-84
2023/03/12 01:36:12;;;;;;;7.22;2.05;;;5.00;67.10;;;;;;2492796;52;21313;-86
2023/03/12 01:38:38;;;;;;;8.13;2.33;;;5.00;67.10;;;;;;2492545;52;20986;-86
2023/03/12 01:41:04;;;;;;;4.82;2.20;;;5.00;67.00;;;;;;2492978;52;21497;-86
2023/03/12 01:43:33;;;;;;;6.37;2.45;;;5.10;67.20;;;;;;2492761;52;20958;-84
2023/03/12 01:47:51;;;;;;;5.12;2.40;;;5.10;67.30;;;;;;2492570;52;21525;-84
2023/03/12 01:50:17;;;;;;;3.25;1.85;;;5.20;66.00;;;;;;2492281;52;20930;-84
2023/03/12 01:52:43;;;;;;;4.60;2.05;;;5.20;67.20;;;;;;2492236;52;22020;-85
2023/03/12 01:55:12;;;;;;;8.43;2.62;;;5.20;67.30;;;;;;2492357;53;20910;-83
2023/03/12 01:57:59;;;;;;;4.65;2.25;;;5.30;67.40;;;;;;2492752;52;21951;-85
2023/03/12 02:00:26;;;;;;;5.20;2.50;;;5.30;66.90;;;;;;2267103;55;20952;-84
2023/03/12 02:02:58;;;;;;;6.35;2.33;;;5.30;67.30;;;;;;2263678;55;21073;-85
2023/03/12 02:05:32;;;;;;;4.40;2.20;;;5.40;67.50;;;;;;2492743;52;21044;-84
2023/03/12 02:07:58;;;;;;;6.60;2.28;;;5.40;67.30;;;;;;2492602;52;20926;-85
2023/03/12 02:10:25;;;;;;;4.12;1.95;;;5.40;67.40;;;;;;2492519;52;20891;-84
2023/03/12 02:12:51;;;;;;;4.50;2.08;;;5.40;67.50;;;;;;2492519;52;20898;-84
2023/03/12 02:15:18;;;;;;;4.95;2.03;;;5.50;67.60;;;;;;2491993;52;21013;-84
2023/03/12 02:17:44;;;;;;;4.87;2.50;;;5.50;67.60;;;;;;2492762;52;20949;-84
2023/03/12 02:21:44;;;;;;;4.50;2.40;;;5.60;67.70;;;;;;2492255;52;20978;-83
2023/03/12 02:24:21;;;;;;;5.30;3.03;;;5.60;66.20;;;;;;2492370;52;20891;-84
2023/03/12 02:26:48;;;;;;;6.28;2.42;;;5.70;67.60;;;;;;2492606;52;20930;-84
2023/03/12 02:29:14;;;;;;;6.60;2.92;;;5.70;67.70;;;;;;2491781;52;21073;-83
2023/03/12 02:31:47;;;;;;;11.70;2.85;;;5.70;67.70;;;;;;2491159;52;20970;-83
2023/03/12 02:34:14;;;;;;;6.18;3.03;;;5.80;67.70;;;;;;2491118;52;21553;-84
2023/03/12 02:36:40;;;;;;;8.32;3.47;;;5.90;67.80;;;;;;2491349;52;20954;-84
2023/03/12 02:39:06;;;;;;;5.90;3.12;;;5.90;67.90;;;;;;2491367;52;21061;-84
2023/03/12 02:41:40;;;;;;;6.43;2.58;;;5.90;67.90;;;;;;2491632;52;22379;-84
2023/03/12 02:44:18;;;;;;;9.80;2.95;;;5.90;67.90;;;;;;2491294;52;21057;-85
2023/03/12 02:46:46;;;;;;;9.70;3.50;;;6.00;67.80;;;;;;2491448;52;20923;-85
2023/03/12 02:49:13;;;;;;;6.93;3.25;;;6.00;68.00;;;;;;2489987;52;20993;-85
2023/03/12 02:51:40;;;;;;;6.18;3.30;;;6.10;68.10;;;;;;2491464;52;21021;-84
2023/03/12 02:54:07;;;;;;;4.90;2.50;;;6.10;68.10;;;;;;2491087;52;21955;-84
2023/03/12 02:56:33;;;;;;;7.10;2.83;;;6.10;68.10;;;;;;2491733;52;20835;-84
2023/03/12 02:59:00;;;;;;;4.95;2.20;;;6.20;68.20;;;;;;2490711;52;21061;-85
2023/03/12 03:01:28;;;;;;;6.12;2.30;;;6.20;68.20;;;;;;2490717;52;22183;-84
2023/03/12 03:03:54;;;;;;;5.30;2.28;;;6.20;68.90;;;;;;2490611;52;20981;-84
2023/03/12 03:06:21;;;;;;;6.25;2.85;;;6.20;68.20;;;;;;2490314;52;20934;-84
2023/03/12 03:08:47;;;;;;;6.95;3.08;;;6.30;68.40;;;;;;2490314;52;21042;-85
2023/03/12 03:11:13;;;;;;;6.05;2.97;;;6.30;68.40;;;;;;2490172;52;20915;-83
2023/03/12 03:13:40;;;;;;;7.30;3.00;;;6.40;68.60;;;;;;2491441;52;20963;-84
2023/03/12 03:16:06;;;;;;;4.70;2.70;;;6.40;68.70;;;;;;2262144;55;20934;-84
2023/03/12 03:18:33;;;;;;;4.95;2.65;;;6.40;68.70;;;;;;2490547;52;20942;-84
2023/03/12 03:21:06;;;;;;;4.75;2.37;;;6.50;68.90;;;;;;2490608;52;21029;-85
2023/03/12 03:23:33;;;;;;;5.30;2.70;;;6.50;68.90;;;;;;2490897;52;20983;-85
2023/03/12 03:25:59;;;;;;;5.53;2.75;;;6.60;69.20;;;;;;2491019;52;21049;-84
2023/03/12 03:28:26;;;;;;;5.68;3.35;;;6.70;69.30;;;;;;2261832;56;20954;-86
2023/03/12 03:30:53;;;;;;;5.32;2.80;;;6.70;69.40;;;;;;2491574;52;20949;-85
2023/03/12 03:33:20;;;;;;;6.47;2.90;;;6.80;69.60;;;;;;2491280;52;21679;-84
2023/03/12 03:35:47;;;;;;;6.43;2.80;;;6.80;69.60;;;;;;2262580;56;20947;-86
2023/03/12 03:38:14;;;;;;;6.28;2.33;;;6.90;69.70;;;;;;2492109;52;21668;-84
2023/03/12 03:40:40;;;;;;;6.30;2.65;;;6.90;69.70;;;;;;2492506;52;20998;-84
2023/03/12 03:43:06;;;;;;;5.60;2.35;;;7.00;69.50;;;;;;2263196;55;20906;-85
2023/03/12 03:45:33;;;;;;;4.50;2.58;;;7.00;69.50;;;;;;2489288;54;20937;-84
2023/03/12 03:47:59;;;;;;;4.55;2.10;;;7.10;69.60;;;;;;2489130;54;20961;-85
2023/03/12 03:50:25;;;;;;;5.65;2.50;;;7.10;69.60;;;;;;2488999;54;20982;-84
2023/03/12 03:52:52;;;;;;;4.45;2.47;;;7.20;69.60;;;;;;2489378;55;20978;-84
2023/03/12 03:55:18;;;;;;;4.78;2.15;;;7.20;69.60;;;;;;2261892;56;21033;-84
2023/03/12 03:57:45;;;;;;;3.50;2.10;;;7.30;69.60;;;;;;2489672;54;20994;-84
2023/03/12 04:00:12;;;;;;;4.40;2.30;;;7.40;69.60;;;;;;2489227;55;21046;-85
2023/03/12 04:02:39;;;;;;;4.45;2.17;;;7.40;69.60;;;;;;2489720;55;21074;-84
2023/03/12 04:05:05;;;;;;;5.03;2.55;;;7.40;69.40;;;;;;2262040;56;21006;-86
2023/03/12 04:07:32;;;;;;;5.22;2.28;;;7.40;69.40;;;;;;2489428;55;20965;-84
2023/03/12 04:09:58;;;;;;;4.25;2.40;;;7.50;69.40;;;;;;2262225;56;20934;-85
2023/03/12 04:12:24;;;;;;;4.72;2.37;;;7.50;69.30;;;;;;2261815;56;20886;-85
2023/03/12 04:14:51;;;;;;;3.97;2.42;;;7.60;69.30;;;;;;2262005;56;20937;-85
2023/03/12 04:17:18;;;;;;;4.35;2.35;;;7.60;69.20;;;;;;2490355;55;20946;-84
2023/03/12 04:19:44;;;;;;;4.40;1.90;;;7.60;69.10;;;;;;2262691;56;20942;-85
2023/03/12 04:22:10;;;;;;;3.90;2.00;;;7.70;69.00;;;;;;2488853;55;21013;-85
2023/03/12 04:24:36;;;;;;;3.97;2.00;;;7.70;69.00;;;;;;2489965;55;21085;-85
2023/03/12 04:27:03;;;;;;;3.28;1.75;;;7.70;68.90;;;;;;2490603;54;20940;-85
2023/03/12 04:29:29;;;;;;;3.65;1.87;;;7.70;68.90;;;;;;2489653;55;21313;-85
2023/03/12 04:31:55;;;;;;;4.47;2.00;;;7.70;68.90;;;;;;2261948;55;21263;-84
2023/03/12 04:34:22;;;;;;;4.37;2.33;;;7.70;68.80;;;;;;2488873;55;21960;-85
2023/03/12 04:36:48;;;;;;;5.18;2.20;;;7.70;68.70;;;;;;2489221;54;20988;-85
2023/03/12 04:39:18;;;;;;;5.18;2.25;;;7.70;68.60;;;;;;2489706;55;21021;-84
2023/03/12 04:41:44;;;;;;;4.70;2.17;;;7.80;68.70;;;;;;2490109;54;21014;-84
2023/03/12 04:44:11;;;;;;;3.75;2.03;;;7.70;68.60;;;;;;2262608;55;21357;-85
2023/03/12 04:46:38;;;;;;;5.05;2.50;;;7.70;68.70;;;;;;2489574;55;21025;-86
2023/03/12 04:49:04;;;;;;;4.70;2.58;;;7.80;68.90;;;;;;2262446;55;20962;-85
2023/03/12 04:51:31;;;;;;;7.03;3.03;;;7.70;68.80;;;;;;2489765;55;22048;-85
2023/03/12 04:53:57;;;;;;;8.73;4.43;;;7.80;69.00;;;;;;2489717;55;22022;-84
2023/03/12 04:56:24;;;;;;;7.62;3.28;;;7.80;68.90;;;;;;2489307;54;21406;-86
2023/03/12 04:58:51;;;;;;;7.82;3.28;;;7.80;69.00;;;;;;2489560;54;22006;-86
2023/03/12 05:01:31;;;;;;;5.75;3.30;;;7.80;69.00;;;;;;2490156;54;22018;-85
2023/03/12 05:03:57;;;;;;;5.72;2.80;;;7.80;68.70;;;;;;2489719;55;20973;-85
2023/03/12 05:06:24;;;;;;;4.78;2.37;;;7.80;69.10;;;;;;2488782;54;20929;-87
2023/03/12 05:08:50;;;;;;;5.80;2.60;;;7.80;69.10;;;;;;2489714;54;20981;-86
2023/03/12 05:11:16;;;;;;;5.90;2.28;;;7.80;69.10;;;;;;2262649;55;20945;-85
2023/03/12 05:13:42;;;;;;;5.70;2.50;;;7.90;69.30;;;;;;2262854;56;20938;-85
2023/03/12 05:16:09;;;;;;;3.92;2.10;;;7.90;69.20;;;;;;2489017;55;21022;-85
2023/03/12 05:18:35;;;;;;;6.10;2.00;;;7.90;69.20;;;;;;2489318;54;21089;-85
2023/03/12 05:21:06;;;;;;;4.00;1.98;;;7.90;69.10;;;;;;2490363;55;20978;-85
2023/03/12 05:23:33;;;;;;;4.15;2.00;;;7.90;69.10;;;;;;2489400;55;21027;-85
2023/03/12 05:26:00;;;;;;;3.75;2.22;;;7.90;69.00;;;;;;2489064;55;20978;-85
2023/03/12 05:28:27;;;;;;;5.15;2.40;;;7.90;69.10;;;;;;2488280;55;21946;-85
2023/03/12 05:30:54;;;;;;;4.37;2.33;;;7.90;69.10;;;;;;2488792;55;21017;-85
2023/03/12 05:33:21;;;;;;;6.50;3.95;;;8.00;69.20;;;;;;2488903;55;21147;-84
2023/03/12 05:35:47;;;;;;;16.87;7.80;;;8.00;69.20;;;;;;2488762;55;20985;-85
2023/03/12 05:38:13;;;;;;;11.60;6.05;;;8.00;69.20;;;;;;2489389;54;20977;-85
2023/03/12 05:40:39;;;;;;;8.93;5.03;;;8.00;69.20;;;;;;2488776;55;20990;-85
2023/03/12 05:43:06;;;;;;;11.82;5.18;;;8.00;69.90;;;;;;2489909;54;21217;-86
2023/03/12 05:45:32;;;;;;;47.20;15.73;;;8.00;69.20;;;;;;2487699;54;20926;-84
2023/03/12 05:47:59;;;;;;;21.80;9.88;;;8.00;69.30;;;;;;2489416;54;20974;-86
2023/03/12 05:50:25;;;;;;;16.17;7.50;;;8.00;69.30;;;;;;2488895;54;21002;-85
2023/03/12 05:52:51;;;;;;;12.75;5.90;;;8.00;69.20;;;;;;2488714;54;21994;-84
2023/03/12 05:55:17;;;;;;;7.90;4.43;;;8.10;69.30;;;;;;2489279;54;20953;-86
2023/03/12 05:57:44;;;;;;;8.18;3.97;;;8.10;69.20;;;;;;2489786;55;21012;-85
2023/03/12 06:00:12;;;;;;;6.57;3.42;;;8.10;69.20;;;;;;2489061;55;22284;-85
2023/03/12 06:02:38;;;;;;;6.32;3.45;;;8.10;69.20;;;;;;2488142;55;20940;-86
2023/03/12 06:05:05;;;;;;;5.50;3.40;;;8.10;69.30;;;;;;2483880;54;22064;-86
2023/03/12 06:07:32;;;;;;;5.22;2.65;;;8.10;69.30;;;;;;2483063;55;22172;-85
2023/03/12 06:09:58;;;;;;;5.70;2.80;;;8.10;69.40;;;;;;2483610;55;21968;-85
2023/03/12 06:12:24;;;;;;;5.40;3.15;;;8.10;69.40;;;;;;2484340;54;20937;-85
2023/03/12 06:14:51;;;;;;;6.70;3.15;;;8.10;69.40;;;;;;2484079;54;20977;-86
2023/03/12 06:17:17;;;;;;;5.72;3.22;;;8.10;69.30;;;;;;2484736;54;20938;-86
2023/03/12 06:19:43;;;;;;;5.18;3.08;;;8.20;69.50;;;;;;2484714;55;20989;-85
2023/03/12 06:22:09;;;;;;;6.65;3.20;;;8.20;69.60;;;;;;2257908;56;20953;-85
2023/03/12 06:24:36;;;;;;;6.72;3.15;;;8.20;69.50;;;;;;2483986;55;20930;-86
2023/03/12 06:27:02;;;;;;;4.90;2.87;;;8.20;69.50;;;;;;2484235;55;21002;-85
2023/03/12 06:29:29;;;;;;;5.35;3.05;;;8.20;69.50;;;;;;2258126;55;20957;-86
2023/03/12 06:31:55;;;;;;;4.37;2.58;;;8.20;69.60;;;;;;2257459;55;20922;-85
2023/03/12 06:34:21;;;;;;;6.45;3.05;;;8.20;69.60;;;;;;2483282;54;21005;-85
2023/03/12 06:36:48;;;;;;;5.35;3.30;;;8.30;69.80;;;;;;2482977;55;21097;-84
2023/03/12 06:39:17;;;;;;;5.47;2.83;;;8.30;69.80;;;;;;2480083;55;21720;-85
2023/03/12 06:41:43;;;;;;;5.12;3.03;;;8.30;69.80;;;;;;2478763;55;20981;-85
2023/03/12 06:44:10;;;;;;;5.37;3.20;;;8.30;69.80;;;;;;2479118;54;21655;-86
2023/03/12 06:46:36;;;;;;;5.03;3.08;;;8.30;69.90;;;;;;2479019;54;20950;-85
2023/03/12 06:49:03;;;;;;;4.68;2.87;;;8.40;70.10;;;;;;2480632;54;20965;-85
2023/03/12 06:51:32;;;;;;;4.85;2.72;;;8.40;70.20;;;;;;2480601;55;20939;-86
2023/03/12 06:54:01;;;;;;;4.20;2.60;;;8.40;70.20;;;;;;2480982;55;21148;-86
2023/03/12 06:56:28;;;;;;;4.55;2.80;;;8.30;70.20;;;;;;2481052;54;20978;-86
2023/03/12 06:58:55;;;;;;;4.70;2.70;;;8.50;70.50;;;;;;2481714;54;21289;-85
2023/03/12 07:01:21;;;;;;;4.87;2.83;;;8.50;70.70;;;;;;2481424;54;21050;-85
2023/03/12 07:03:47;;;;;;;6.70;3.45;;;8.60;71.10;;;;;;2481674;55;21052;-85
2023/03/12 07:06:14;;;;;;;5.75;3.22;;;8.50;71.30;;;;;;2481562;54;21533;-85
2023/03/12 07:08:41;;;;;;;5.32;2.75;;;8.70;71.80;;;;;;2482242;54;21088;-85
2023/03/12 07:11:08;;;;;;;5.37;2.83;;;8.80;72.30;;;;;;2483993;54;21000;-85
2023/03/12 07:13:34;;;;;;;4.40;2.45;;;8.90;72.70;;;;;;2480251;54;21411;-85
2023/03/12 07:16:01;;;;;;;4.75;2.60;;;9.00;73.00;;;;;;2255118;55;21068;-87
2023/03/12 07:18:27;;;;;;;4.82;2.60;;;9.10;73.40;;;;;;2481216;55;20961;-85
2023/03/12 07:20:54;;;;;;;5.10;2.60;;;9.20;73.60;;;;;;2480468;54;20976;-87
2023/03/12 07:23:20;;;;;;;4.32;2.55;;;9.30;74.00;;;;;;2479424;54;20970;-84
2023/03/12 07:25:46;;;;;;;4.95;2.70;;;9.40;74.10;;;;;;2255239;55;20986;-85
2023/03/12 07:28:13;;;;;;;3.92;2.30;;;9.50;74.20;;;;;;2480823;54;20970;-84
2023/03/12 07:30:39;;;;;;;4.37;2.40;;;9.60;74.30;;;;;;2478158;54;22096;-85
2023/03/12 07:33:10;;;;;;;4.03;2.40;;;9.60;74.30;;;;;;2253111;55;20997;-84
2023/03/12 07:35:39;;;;;;;3.95;2.20;;;9.80;74.50;;;;;;2256104;55;20991;-85
2023/03/12 07:38:06;;;;;;;3.78;2.08;;;9.90;74.40;;;;;;2479333;55;21378;-86
2023/03/12 07:40:33;;;;;;;3.67;2.15;;;9.90;74.30;;;;;;2478582;55;20998;-85
2023/03/12 07:42:59;;;;;;;3.55;1.90;;;10.30;73.50;;;;;;2477559;54;21006;-84
2023/03/12 07:45:25;;;;;;;4.28;2.22;;;10.30;73.40;;;;;;2477651;55;20974;-84
2023/03/12 07:47:52;;;;;;;7.47;3.37;;;10.40;73.40;;;;;;2479314;55;20972;-85
2023/03/12 07:50:19;;;;;;;6.78;2.95;;;10.50;73.50;;;;;;2478672;54;21552;-86
2023/03/12 07:52:45;;;;;;;4.60;2.40;;;10.60;73.40;;;;;;2253232;55;21507;-86
2023/03/12 07:55:12;;;;;;;3.40;1.90;;;10.60;73.30;;;;;;2478088;55;21092;-85
2023/03/12 07:57:38;;;;;;;3.45;2.12;;;10.70;73.30;;;;;;2481165;55;21081;-86
2023/03/12 08:00:06;;;;;;;3.42;1.77;;;10.80;73.20;;;;;;2482752;55;20958;-85
2023/03/12 08:02:33;;;;;;;4.30;1.87;;;10.90;73.20;;;;;;2254758;55;21380;-87
2023/03/12 08:04:59;;;;;;;4.60;1.92;;;11.00;73.20;;;;;;2480069;54;22255;-87
2023/03/12 08:07:31;;;;;;;3.90;1.90;;;11.10;73.20;;;;;;2481679;54;21096;-87
2023/03/12 08:09:58;;;;;;;3.50;1.83;;;11.20;73.10;;;;;;2482342;54;21006;-85
2023/03/12 08:12:24;;;;;;;3.12;1.65;;;11.30;73.20;;;;;;2482849;54;20990;-87
2023/03/12 08:14:51;;;;;;;2.55;1.17;;;11.30;73.10;;;;;;2482308;54;20966;-89
2023/03/12 08:17:17;;;;;;;3.87;1.50;;;11.40;73.30;;;;;;2256802;55;21037;-86
2023/03/12 08:19:43;;;;;;;4.03;1.65;;;11.40;73.10;;;;;;2260289;55;20972;-86
2023/03/12 08:22:10;;;;;;;2.78;1.52;;;11.50;73.10;;;;;;2480762;54;20978;-87
2023/03/12 08:24:36;;;;;;;3.45;1.50;;;11.60;73.10;;;;;;2481299;55;21081;-84
2023/03/12 08:27:02;;;;;;;2.72;1.42;;;11.60;73.10;;;;;;2479360;55;20938;-85
2023/03/12 08:29:29;;;;;;;3.83;1.62;;;11.70;73.20;;;;;;2479066;55;21024;-85
2023/03/12 08:31:55;;;;;;;3.85;2.20;;;11.80;73.10;;;;;;2478971;54;21009;-84
2023/03/12 08:34:30;;;;;;;4.47;2.05;;;11.90;73.10;;;;;;2478793;55;20930;-83
2023/03/12 08:36:56;;;;;;;4.32;2.15;;;11.90;73.10;;;;;;2477976;54;20972;-85
2023/03/12 08:39:23;;;;;;;4.45;2.40;;;12.00;73.00;;;;;;2478584;54;20949;-85
2023/03/12 08:41:54;;;;;;;3.00;1.58;;;12.10;73.00;;;;;;2478675;54;20969;-86
2023/03/12 08:44:21;;;;;;;3.03;1.65;;;12.20;72.90;;;;;;2252714;56;20969;-85
2023/03/12 08:46:48;;;;;;;3.50;1.50;;;12.30;73.00;;;;;;2478845;55;22321;-86
2023/03/12 08:49:14;;;;;;;3.50;1.60;;;12.30;72.90;;;;;;2254316;56;20941;-86
2023/03/12 08:51:40;;;;;;;4.45;1.58;;;12.40;73.00;;;;;;2478586;55;20986;-85
2023/03/12 08:54:08;;;;;;;4.80;1.50;;;12.40;72.90;;;;;;2478765;55;20989;-87
2023/03/12 08:56:36;;;;;;;3.12;1.48;;;12.50;72.90;;;;;;2478486;54;20950;-86
2023/03/12 08:59:02;;;;;;;3.67;1.48;;;12.50;72.90;;;;;;2478342;55;20955;-84
2023/03/12 09:01:28;;;;;;;2.95;1.45;;;12.60;72.90;;;;;;2253393;56;21061;-88
2023/03/12 09:03:55;;;;;;;3.62;1.80;;;12.60;72.70;;;;;;2252479;55;22115;-85
2023/03/12 09:06:22;;;;;;;4.50;1.70;;;12.70;72.70;;;;;;2479298;55;21001;-84
2023/03/12 09:08:50;;;;;;;3.17;1.75;;;12.80;72.70;;;;;;2480345;54;20998;-85
2023/03/12 09:11:16;;;;;;;3.92;1.77;;;12.80;72.60;;;;;;2478890;54;20954;-85
2023/03/12 09:13:43;;;;;;;3.12;1.67;;;12.80;72.60;;;;;;2478716;54;21089;-85
2023/03/12 09:16:48;;;;;;;3.25;1.60;;;12.90;72.80;;;;;;2479232;54;21071;-84
2023/03/12 09:19:14;;;;;;;3.60;1.67;;;12.90;72.80;;;;;;2476909;54;20970;-85
2023/03/12 09:21:41;;;;;;;3.00;1.62;;;13.00;73.00;;;;;;2478652;55;21687;-84
2023/03/12 09:24:07;;;;;;;5.20;2.08;;;13.10;73.00;;;;;;2235405;56;20957;-85
2023/03/12 09:26:33;;;;;;;3.40;1.77;;;13.10;72.80;;;;;;2477690;54;20946;-85
2023/03/12 09:29:00;;;;;;;2.95;1.60;;;13.30;73.90;;;;;;2477042;54;21412;-84
2023/03/12 09:31:26;;;;;;;3.80;1.83;;;13.30;73.10;;;;;;2477326;55;20954;-84
2023/03/12 09:33:53;;;;;;;3.70;1.75;;;13.30;73.10;;;;;;2252818;55;20942;-84
2023/03/12 09:36:19;;;;;;;3.20;1.80;;;13.40;73.30;;;;;;2480979;55;22166;-85
2023/03/12 09:38:46;;;;;;;4.72;2.00;;;13.50;73.20;;;;;;2479864;54;20930;-84
2023/03/12 09:41:21;;;;;;;7.25;2.20;;;13.60;73.30;;;;;;2480222;54;21003;-85
2023/03/12 09:43:53;;;;;;;4.10;2.00;;;13.70;73.40;;;;;;2255022;56;20937;-84
2023/03/12 09:46:36;;;;;;;4.22;1.98;;;13.60;73.30;;;;;;2481836;54;20937;-86
2023/03/12 09:49:05;;;;;;;3.65;1.90;;;13.80;73.10;;;;;;2480203;55;22205;-86
2023/03/12 09:51:40;;;;;;;3.40;1.73;;;13.90;73.20;;;;;;2259499;55;21180;-86
2023/03/12 09:54:13;;;;;;;4.15;1.67;;;14.00;73.20;;;;;;2482758;53;20942;-86
2023/03/12 09:56:40;;;;;;;3.53;1.67;;;14.00;73.30;;;;;;2484282;54;20938;-83
2023/03/12 09:59:12;;;;;;;2.55;1.08;;;14.10;73.50;;;;;;2480710;54;21321;-86
2023/03/12 10:01:54;;;;;;;3.53;1.50;;;14.20;73.40;;;;;;2451657;55;1815187;-85
2023/03/12 10:04:40;;;;;;;6.45;1.50;;;14.30;72.90;;;;;;2483357;54;21510;-85
2023/03/12 10:07:37;;;;;;;2.95;1.35;;;14.40;72.90;;;;;;2481975;54;21031;-85
2023/03/12 10:13:53;;;;;;;3.33;1.67;;;14.50;73.60;;;;;;2478809;54;22151;-85
2023/03/12 10:18:24;;;;;;;4.10;2.05;;;14.70;72.70;;;;;;2478657;55;21886;-86
2023/03/12 10:26:56;;;;;;;4.87;1.40;;;14.90;73.50;;;;;;2478150;54;21041;-85
2023/03/12 10:29:33;;;;;;;3.08;1.23;;;15.10;74.00;;;;;;2478916;55;21022;-83
2023/03/12 10:32:38;;;;;;;3.60;1.45;;;15.50;75.90;;;;;;2253082;55;21070;-86
2023/03/12 10:35:16;;;;;;;3.22;1.50;;;15.60;76.30;;;;;;2476790;54;21531;-85
2023/03/12 10:38:16;;;;;;;5.30;1.75;;;15.80;76.10;;;;;;2478155;54;21040;-84
2023/03/12 10:40:42;;;;;;;3.83;1.70;;;15.90;76.80;;;;;;2236349;55;20994;-83
2023/03/12 10:43:09;;;;;;;4.85;1.35;;;16.10;76.70;;;;;;2253817;56;20965;-84
2023/03/12 10:45:59;;;;;;;3.12;1.20;;;16.20;76.20;;;;;;2478702;55;22206;-84
2023/03/12 10:48:25;;;;;;;5.57;1.02;;;16.30;75.00;;;;;;2253429;55;22094;-85
2023/03/12 10:51:10;;;;;;;3.35;1.02;;;16.40;75.70;;;;;;2480317;55;20996;-85
2023/03/12 10:53:43;;;;;;;4.87;1.40;;;16.50;74.00;;;;;;2477814;55;21065;-85
2023/03/12 10:56:11;;;;;;;6.15;1.23;;;16.60;75.00;;;;;;2478621;55;21017;-84
2023/03/12 10:58:42;;;;;;;3.25;1.10;;;16.70;75.10;;;;;;2478975;55;22073;-84
2023/03/12 11:01:45;;;;;;;2.95;0.98;;;16.80;74.60;;;;;;2253850;55;21017;-86
2023/03/12 11:04:20;;;;;;;6.15;1.12;;;16.80;72.50;;;;;;2468501;54;22124;-86
2023/03/12 11:07:39;;;;;;;5.65;1.30;;;16.90;73.50;;;;;;2254554;55;20998;-84
2023/03/12 11:10:20;;;;;;;4.30;1.30;;;17.00;72.20;;;;;;2477897;55;21530;-85
2023/03/12 11:13:01;;;;;;;3.80;1.15;;;17.10;72.60;;;;;;2477326;54;21316;-83
2023/03/12 11:15:41;;;;;;;4.53;1.50;;;17.10;72.50;;;;;;2477544;55;20997;-85
2023/03/12 11:19:59;;;;;;;5.15;1.27;;;17.20;72.30;;;;;;2478053;54;21965;-84
2023/03/12 11:22:28;;;;;;;4.62;1.42;;;17.20;71.00;;;;;;2477682;54;21304;-85
2023/03/12 11:24:58;;;;;;;4.10;1.05;;;17.30;73.10;;;;;;2477078;55;21395;-82
2023/03/12 11:27:50;;;;;;;4.53;1.37;;;17.30;72.90;;;;;;2246818;55;21112;-86
2023/03/12 11:30:21;;;;;;;4.05;1.17;;;17.30;70.60;;;;;;2247509;55;21149;-83
2023/03/12 11:32:48;;;;;;;4.20;1.50;;;17.30;72.50;;;;;;2474409;54;20969;-83
2023/03/12 11:35:16;;;;;;;4.75;1.00;;;17.40;72.50;;;;;;2476673;55;21367;-82
2023/03/12 11:38:03;;;;;;;3.72;1.10;;;17.40;72.20;;;;;;2253194;55;20961;-87
2023/03/12 11:50:40;;;;;;;3.58;0.90;;;17.40;71.30;;;;;;2251638;55;21002;-83
2023/03/12 11:54:37;;;;;;;3.92;0.93;;;17.50;70.10;;;;;;2482200;54;21080;-90
2023/03/12 11:58:06;;;;;;;3.87;1.05;;;17.50;70.70;;;;;;2481906;55;21013;-89
2023/03/12 12:03:42;;;;;;;5.70;1.30;;;17.50;69.10;;;;;;2478305;55;22183;-83
2023/03/12 12:06:22;;;;;;;;;;;17.50;70.00;;;;;;2480877;55;20980;-84
2023/03/12 12:15:45;;;;;;;5.55;1.30;;;17.50;69.50;;;;;;2250890;55;20104;-83
2023/03/12 12:20:29;;;;;;;4.85;1.00;;;17.40;69.20;;;;;;2473440;55;20994;-82
2023/03/12 12:23:38;;;;;;;3.13;0.70;;;17.30;68.70;;;;;;2482042;54;20954;-82
2023/03/12 12:26:12;;;;;;;4.45;0.80;;;17.30;70.20;;;;;;2478766;55;20942;-83
2023/03/12 12:35:32;;;;;;;3.17;0.90;;;17.20;69.50;;;;;;2480256;54;21029;-85
2023/03/12 12:38:19;;;;;;;4.07;0.93;;;17.10;69.50;;;;;;2479255;54;22097;-83
2023/03/12 12:40:53;;;;;;;4.18;1.00;;;17.10;70.40;;;;;;2478784;55;20954;-83
2023/03/12 12:43:43;;;;;;;5.07;1.40;;;17.00;70.00;;;;;;2477647;55;20994;-83
2023/03/12 12:46:26;;;;;;;2.08;0.80;;;17.00;68.80;;;;;;2253133;55;20998;-83
2023/03/12 12:48:54;;;;;;;5.18;1.35;;;16.90;69.30;;;;;;2252497;56;21686;-82
2023/03/12 12:51:22;;;;;;;3.15;0.80;;;16.90;70.70;;;;;;2252039;55;20918;-83
2023/03/12 12:54:12;;;;;;;3.08;0.75;;;16.80;70.80;;;;;;2477212;55;21065;-82
2023/03/12 12:57:11;;;;;;;2.53;0.82;;;16.90;69.40;;;;;;2452679;55;21038;-83
2023/03/12 12:59:57;;;;;;;4.80;1.10;;;16.90;70.10;;;;;;2478123;55;20997;-82
2023/03/12 13:02:27;;;;;;;2.40;0.70;;;16.90;71.20;;;;;;2478085;54;21013;-83
2023/03/12 13:04:57;;;;;;;4.65;1.08;;;17.00;71.40;;;;;;2251677;55;21607;-83
2023/03/12 13:07:33;;;;;;;4.57;1.10;;;17.00;70.70;;;;;;2251163;55;21073;-83
2023/03/12 13:09:59;;;;;;;3.75;0.90;;;17.00;69.80;;;;;;2251775;55;22228;-83
2023/03/12 13:12:46;;;;;;;2.78;0.82;;;17.00;70.90;;;;;;2476586;55;20970;-84
2023/03/12 13:15:38;;;;;;;4.53;1.30;;;17.10;69.60;;;;;;2476594;54;20998;-84
2023/03/12 13:18:08;;;;;;;3.28;0.93;;;17.10;69.50;;;;;;2477581;54;20926;-84
2023/03/12 13:21:08;;;;;;;4.82;1.00;;;17.10;70.70;;;;;;2252511;55;20974;-84
2023/03/12 13:24:04;;;;;;;3.72;0.80;;;17.10;69.50;;;;;;2250974;55;21065;-83
2023/03/12 13:26:44;;;;;;;3.78;0.93;;;17.20;70.30;;;;;;2250570;55;21387;-85
2023/03/12 13:31:47;;;;;;;5.15;1.48;;;17.20;70.90;;;;;;2451865;55;20954;-85
2023/03/12 13:34:44;;;;;;;5.57;1.00;;;17.30;68.80;;;;;;2475849;54;21013;-84
2023/03/12 13:37:26;;;;;;;4.50;1.20;;;17.30;69.20;;;;;;2476550;55;21010;-85
2023/03/12 13:39:53;;;;;;;3.58;1.02;;;17.30;70.30;;;;;;2476849;55;20962;-86
2023/03/12 13:42:34;;;;;;;6.50;2.17;;;17.30;71.50;;;;;;2250147;56;20954;-85
2023/03/12 13:45:23;;;;;;;6.27;2.23;;;17.40;70.70;;;;;;2477019;54;20977;-85
2023/03/12 13:47:49;;;;;;;7.87;2.60;;;17.50;70.00;;;;;;2474207;54;20970;-85
2023/03/12 13:50:16;;;;;;;4.12;1.50;;;17.50;72.00;;;;;;2476627;55;21117;-86
2023/03/12 13:53:31;;;;;;;5.70;2.05;;;17.60;72.00;;;;;;2254151;55;21108;-84
2023/03/12 13:56:11;;;;;;;5.65;1.58;;;17.70;69.10;;;;;;2475957;54;20998;-85
2023/03/12 13:59:00;;;;;;;5.00;1.20;;;17.80;70.90;;;;;;2476501;55;22065;-86